sensor_id;sensor_type;location;lat;lon;timestamp;temperature;humidity
22430;DHT22;11382;48.086;11.632;2023-04-21T00:01:40;7.10;99.90
22430;DHT22;11382;48.086;11.632;2023-04-21T00:04:08;7.10;99.90
22430;DHT22;11382;48.086;11.632;2023-04-21T00:06:39;7.10;99.90
22430;DHT22;11382;48.086;11.632;2023-04-21T00:09:08;7.20;99.90
22430;DHT22;11382;48.086;11.632;2023-04-21T00:11:36;7.30;99.90
22430;DHT22;11382;48.086;11.632;2023-04-21T00:14:04;7.30;99.90
22430;DHT22;11382;48.086;11.632;2023-04-21T00:16:33;7.20;99.90
22430;DHT22;11382;48.086;11.632;2023-04-21T00:19:02;7.20;99.90
22430;DHT22;11382;48.086;11.632;2023-04-21T00:21:32;7.20;99.90
22430;DHT22;11382;48.086;11.632;2023-04-21T00:24:00;7.20;99.90
22430;DHT22;11382;48.086;11.632;2023-04-21T00:26:28;7.20;99.90
22430;DHT22;11382;48.086;11.632;2023-04-21T00:28:56;7.20;99.90
22430;DHT22;11382;48.086;11.632;2023-04-21T00:31:24;7.20;99.90
22430;DHT22;11382;48.086;11.632;2023-04-21T00:33:53;7.10;99.90
22430;DHT22;11382;48.086;11.632;2023-04-21T00:36:22;7.20;99.90
22430;DHT22;11382;48.086;11.632;2023-04-21T00:38:53;7.20;99.90
22430;DHT22;11382;48.086;11.632;2023-04-21T00:41:21;7.30;99.90
22430;DHT22;11382;48.086;11.632;2023-04-21T00:43:59;7.30;99.90
22430;DHT22;11382;48.086;11.632;2023-04-21T00:46:30;7.40;99.90
22430;DHT22;11382;48.086;11.632;2023-04-21T00:49:02;7.40;99.90
22430;DHT22;11382;48.086;11.632;2023-04-21T00:51:32;7.30;99.90
22430;DHT22;11382;48.086;11.632;2023-04-21T00:54:01;7.40;99.90
22430;DHT22;11382;48.086;11.632;2023-04-21T00:56:31;7.50;99.90
22430;DHT22;11382;48.086;11.632;2023-04-21T00:59:01;7.40;99.90
22430;DHT22;11382;48.086;11.632;2023-04-21T01:01:29;7.30;99.90
22430;DHT22;11382;48.086;11.632;2023-04-21T01:04:00;7.30;99.90
22430;DHT22;11382;48.086;11.632;2023-04-21T01:06:29;7.30;99.90
22430;DHT22;11382;48.086;11.632;2023-04-21T01:08:57;7.30;99.90
22430;DHT22;11382;48.086;11.632;2023-04-21T01:11:25;7.20;99.90
22430;DHT22;11382;48.086;11.632;2023-04-21T01:13:53;7.30;99.90
22430;DHT22;11382;48.086;11.632;2023-04-21T01:16:22;7.30;99.90
22430;DHT22;11382;48.086;11.632;2023-04-21T01:18:52;7.20;99.90
22430;DHT22;11382;48.086;11.632;2023-04-21T01:21:22;7.20;99.90
22430;DHT22;11382;48.086;11.632;2023-04-21T01:23:51;7.20;99.90
22430;DHT22;11382;48.086;11.632;2023-04-21T01:26:20;7.10;99.90
22430;DHT22;11382;48.086;11.632;2023-04-21T01:28:48;7.20;99.90
22430;DHT22;11382;48.086;11.632;2023-04-21T01:31:17;7.30;99.90
22430;DHT22;11382;48.086;11.632;2023-04-21T01:33:46;7.30;99.90
22430;DHT22;11382;48.086;11.632;2023-04-21T01:36:15;7.20;99.90
22430;DHT22;11382;48.086;11.632;2023-04-21T01:38:43;7.10;99.90
22430;DHT22;11382;48.086;11.632;2023-04-21T01:41:12;7.20;99.90
22430;DHT22;11382;48.086;11.632;2023-04-21T01:43:41;7.20;99.90
22430;DHT22;11382;48.086;11.632;2023-04-21T01:46:09;7.20;99.90
22430;DHT22;11382;48.086;11.632;2023-04-21T01:48:37;7.40;99.90
22430;DHT22;11382;48.086;11.632;2023-04-21T01:51:05;7.30;99.90
22430;DHT22;11382;48.086;11.632;2023-04-21T01:53:33;7.40;99.90
22430;DHT22;11382;48.086;11.632;2023-04-21T01:56:01;7.40;99.90
22430;DHT22;11382;48.086;11.632;2023-04-21T01:58:31;7.50;99.90
22430;DHT22;11382;48.086;11.632;2023-04-21T02:00:59;7.50;99.90
22430;DHT22;11382;48.086;11.632;2023-04-21T02:03:27;7.50;99.90
22430;DHT22;11382;48.086;11.632;2023-04-21T02:05:55;7.50;99.90
22430;DHT22;11382;48.086;11.632;2023-04-21T02:08:23;7.40;99.90
22430;DHT22;11382;48.086;11.632;2023-04-21T02:10:51;7.30;99.90
22430;DHT22;11382;48.086;11.632;2023-04-21T02:13:19;7.30;99.90
22430;DHT22;11382;48.086;11.632;2023-04-21T02:15:48;7.30;99.90
22430;DHT22;11382;48.086;11.632;2023-04-21T02:18:31;7.40;99.90
22430;DHT22;11382;48.086;11.632;2023-04-21T02:21:00;7.30;99.90
22430;DHT22;11382;48.086;11.632;2023-04-21T02:23:28;7.30;99.90
22430;DHT22;11382;48.086;11.632;2023-04-21T02:25:56;7.20;99.90
22430;DHT22;11382;48.086;11.632;2023-04-21T02:28:24;7.20;99.90
22430;DHT22;11382;48.086;11.632;2023-04-21T02:30:53;7.30;99.90
22430;DHT22;11382;48.086;11.632;2023-04-21T02:33:21;7.30;99.90
22430;DHT22;11382;48.086;11.632;2023-04-21T02:35:49;7.40;99.90
22430;DHT22;11382;48.086;11.632;2023-04-21T02:38:17;7.20;99.90
22430;DHT22;11382;48.086;11.632;2023-04-21T02:40:45;7.20;99.90
22430;DHT22;11382;48.086;11.632;2023-04-21T02:43:13;7.30;99.90
22430;DHT22;11382;48.086;11.632;2023-04-21T02:45:41;7.10;99.90
22430;DHT22;11382;48.086;11.632;2023-04-21T02:48:12;7.00;99.90
22430;DHT22;11382;48.086;11.632;2023-04-21T02:50:41;7.20;99.90
22430;DHT22;11382;48.086;11.632;2023-04-21T02:53:09;7.20;99.90
22430;DHT22;11382;48.086;11.632;2023-04-21T02:55:37;7.20;99.90
22430;DHT22;11382;48.086;11.632;2023-04-21T02:58:05;7.10;99.90
22430;DHT22;11382;48.086;11.632;2023-04-21T03:00:33;7.00;99.90
22430;DHT22;11382;48.086;11.632;2023-04-21T03:03:01;7.00;99.90
22430;DHT22;11382;48.086;11.632;2023-04-21T03:05:31;6.90;99.90
22430;DHT22;11382;48.086;11.632;2023-04-21T03:07:59;6.80;99.90
22430;DHT22;11382;48.086;11.632;2023-04-21T03:10:26;6.80;99.90
22430;DHT22;11382;48.086;11.632;2023-04-21T03:12:54;6.80;99.90
22430;DHT22;11382;48.086;11.632;2023-04-21T03:15:23;6.90;99.90
22430;DHT22;11382;48.086;11.632;2023-04-21T03:17:51;6.80;99.90
22430;DHT22;11382;48.086;11.632;2023-04-21T03:20:22;6.70;99.90
22430;DHT22;11382;48.086;11.632;2023-04-21T03:22:52;6.60;99.90
22430;DHT22;11382;48.086;11.632;2023-04-21T03:25:20;6.30;99.90
22430;DHT22;11382;48.086;11.632;2023-04-21T03:27:48;6.20;99.90
22430;DHT22;11382;48.086;11.632;2023-04-21T03:30:16;6.20;99.90
22430;DHT22;11382;48.086;11.632;2023-04-21T03:32:44;6.20;99.90
22430;DHT22;11382;48.086;11.632;2023-04-21T03:35:12;6.10;99.90
22430;DHT22;11382;48.086;11.632;2023-04-21T03:37:40;6.20;99.90
22430;DHT22;11382;48.086;11.632;2023-04-21T03:40:10;6.20;99.90
22430;DHT22;11382;48.086;11.632;2023-04-21T03:42:38;6.20;99.90
22430;DHT22;11382;48.086;11.632;2023-04-21T03:45:08;6.30;99.90
22430;DHT22;11382;48.086;11.632;2023-04-21T03:47:36;6.30;99.90
22430;DHT22;11382;48.086;11.632;2023-04-21T03:50:05;6.30;99.90
22430;DHT22;11382;48.086;11.632;2023-04-21T03:52:33;6.40;99.90
22430;DHT22;11382;48.086;11.632;2023-04-21T03:55:01;6.40;99.90
22430;DHT22;11382;48.086;11.632;2023-04-21T03:57:32;6.40;99.90
22430;DHT22;11382;48.086;11.632;2023-04-21T03:59:59;6.50;99.90
22430;DHT22;11382;48.086;11.632;2023-04-21T04:02:38;6.40;99.90
22430;DHT22;11382;48.086;11.632;2023-04-21T04:05:07;6.40;99.90
22430;DHT22;11382;48.086;11.632;2023-04-21T04:07:35;6.30;99.90
22430;DHT22;11382;48.086;11.632;2023-04-21T04:10:03;6.10;99.90
22430;DHT22;11382;48.086;11.632;2023-04-21T04:12:32;6.10;99.90
22430;DHT22;11382;48.086;11.632;2023-04-21T04:15:00;6.10;99.90
22430;DHT22;11382;48.086;11.632;2023-04-21T04:17:28;6.10;99.90
22430;DHT22;11382;48.086;11.632;2023-04-21T04:19:56;6.10;99.90
22430;DHT22;11382;48.086;11.632;2023-04-21T04:22:24;6.20;99.90
22430;DHT22;11382;48.086;11.632;2023-04-21T04:24:52;6.30;99.90
22430;DHT22;11382;48.086;11.632;2023-04-21T04:27:20;6.20;99.90
22430;DHT22;11382;48.086;11.632;2023-04-21T04:29:50;6.10;99.90
22430;DHT22;11382;48.086;11.632;2023-04-21T04:32:18;6.10;99.90
22430;DHT22;11382;48.086;11.632;2023-04-21T04:34:47;6.20;99.90
22430;DHT22;11382;48.086;11.632;2023-04-21T04:37:15;6.30;99.90
22430;DHT22;11382;48.086;11.632;2023-04-21T04:39:43;6.30;99.90
22430;DHT22;11382;48.086;11.632;2023-04-21T04:42:11;6.40;99.90
22430;DHT22;11382;48.086;11.632;2023-04-21T04:44:40;6.40;99.90
22430;DHT22;11382;48.086;11.632;2023-04-21T04:47:09;6.40;99.90
22430;DHT22;11382;48.086;11.632;2023-04-21T04:49:38;6.50;99.90
22430;DHT22;11382;48.086;11.632;2023-04-21T04:52:06;6.60;99.90
22430;DHT22;11382;48.086;11.632;2023-04-21T04:54:33;6.60;99.90
22430;DHT22;11382;48.086;11.632;2023-04-21T04:57:01;6.70;99.90
22430;DHT22;11382;48.086;11.632;2023-04-21T04:59:30;6.80;99.90
22430;DHT22;11382;48.086;11.632;2023-04-21T05:01:58;6.70;99.90
22430;DHT22;11382;48.086;11.632;2023-04-21T05:04:27;6.70;99.90
22430;DHT22;11382;48.086;11.632;2023-04-21T05:06:55;6.90;99.90
22430;DHT22;11382;48.086;11.632;2023-04-21T05:09:23;7.00;99.90
22430;DHT22;11382;48.086;11.632;2023-04-21T05:11:51;7.00;99.90
22430;DHT22;11382;48.086;11.632;2023-04-21T05:14:19;6.80;99.90
22430;DHT22;11382;48.086;11.632;2023-04-21T05:16:47;6.80;99.90
22430;DHT22;11382;48.086;11.632;2023-04-21T05:19:15;6.80;99.90
22430;DHT22;11382;48.086;11.632;2023-04-21T05:21:45;7.00;99.90
22430;DHT22;11382;48.086;11.632;2023-04-21T05:24:13;7.10;99.90
22430;DHT22;11382;48.086;11.632;2023-04-21T05:26:41;7.20;99.90
22430;DHT22;11382;48.086;11.632;2023-04-21T05:29:09;7.30;99.90
22430;DHT22;11382;48.086;11.632;2023-04-21T05:31:37;7.50;99.90
22430;DHT22;11382;48.086;11.632;2023-04-21T05:34:05;7.60;99.90
22430;DHT22;11382;48.086;11.632;2023-04-21T05:36:33;7.60;99.90
22430;DHT22;11382;48.086;11.632;2023-04-21T05:39:02;7.80;99.90
22430;DHT22;11382;48.086;11.632;2023-04-21T05:41:30;7.80;99.90
22430;DHT22;11382;48.086;11.632;2023-04-21T05:43:58;7.90;99.90
22430;DHT22;11382;48.086;11.632;2023-04-21T05:46:26;7.90;99.90
22430;DHT22;11382;48.086;11.632;2023-04-21T05:48:55;8.10;99.90
22430;DHT22;11382;48.086;11.632;2023-04-21T05:51:23;8.50;99.90
22430;DHT22;11382;48.086;11.632;2023-04-21T05:53:52;8.80;99.90
22430;DHT22;11382;48.086;11.632;2023-04-21T05:56:21;9.00;99.90
22430;DHT22;11382;48.086;11.632;2023-04-21T05:58:49;9.20;99.90
22430;DHT22;11382;48.086;11.632;2023-04-21T06:01:17;9.60;99.90
22430;DHT22;11382;48.086;11.632;2023-04-21T06:03:45;10.50;99.90
22430;DHT22;11382;48.086;11.632;2023-04-21T06:06:15;11.80;99.90
22430;DHT22;11382;48.086;11.632;2023-04-21T06:08:43;12.90;99.90
22430;DHT22;11382;48.086;11.632;2023-04-21T06:11:11;14.00;99.90
22430;DHT22;11382;48.086;11.632;2023-04-21T06:13:40;15.60;99.90
22430;DHT22;11382;48.086;11.632;2023-04-21T06:16:09;15.60;99.90
22430;DHT22;11382;48.086;11.632;2023-04-21T06:18:37;15.60;99.90
22430;DHT22;11382;48.086;11.632;2023-04-21T06:21:05;16.40;99.90
22430;DHT22;11382;48.086;11.632;2023-04-21T06:23:33;16.40;99.90
22430;DHT22;11382;48.086;11.632;2023-04-21T06:26:02;16.70;99.90
22430;DHT22;11382;48.086;11.632;2023-04-21T06:28:31;17.80;99.90
22430;DHT22;11382;48.086;11.632;2023-04-21T06:31:01;18.60;99.90
22430;DHT22;11382;48.086;11.632;2023-04-21T06:33:32;19.40;99.50
22430;DHT22;11382;48.086;11.632;2023-04-21T06:36:00;19.30;99.40
22430;DHT22;11382;48.086;11.632;2023-04-21T06:38:28;20.30;98.90
22430;DHT22;11382;48.086;11.632;2023-04-21T06:40:56;21.20;95.70
22430;DHT22;11382;48.086;11.632;2023-04-21T06:43:24;21.40;94.10
22430;DHT22;11382;48.086;11.632;2023-04-21T06:45:52;20.10;94.50
22430;DHT22;11382;48.086;11.632;2023-04-21T06:48:21;22.70;92.70
22430;DHT22;11382;48.086;11.632;2023-04-21T06:50:50;22.20;90.40
22430;DHT22;11382;48.086;11.632;2023-04-21T06:53:18;22.30;90.30
22430;DHT22;11382;48.086;11.632;2023-04-21T06:55:47;21.30;90.30
22430;DHT22;11382;48.086;11.632;2023-04-21T06:58:15;19.80;92.30
22430;DHT22;11382;48.086;11.632;2023-04-21T07:00:46;18.30;94.70
22430;DHT22;11382;48.086;11.632;2023-04-21T07:03:14;17.80;96.60
22430;DHT22;11382;48.086;11.632;2023-04-21T07:05:44;17.20;97.40
22430;DHT22;11382;48.086;11.632;2023-04-21T07:08:12;16.10;99.40
22430;DHT22;11382;48.086;11.632;2023-04-21T07:10:40;16.00;99.90
22430;DHT22;11382;48.086;11.632;2023-04-21T07:13:08;16.10;99.90
22430;DHT22;11382;48.086;11.632;2023-04-21T07:15:36;15.60;99.90
22430;DHT22;11382;48.086;11.632;2023-04-21T07:18:04;15.30;99.90
22430;DHT22;11382;48.086;11.632;2023-04-21T07:20:32;15.80;99.90
22430;DHT22;11382;48.086;11.632;2023-04-21T07:23:01;16.30;99.90
22430;DHT22;11382;48.086;11.632;2023-04-21T07:25:29;15.80;99.90
22430;DHT22;11382;48.086;11.632;2023-04-21T07:27:57;16.90;99.90
22430;DHT22;11382;48.086;11.632;2023-04-21T07:30:25;19.10;97.70
22430;DHT22;11382;48.086;11.632;2023-04-21T07:32:53;19.80;95.90
22430;DHT22;11382;48.086;11.632;2023-04-21T07:35:21;19.30;96.50
22430;DHT22;11382;48.086;11.632;2023-04-21T07:37:49;18.00;97.10
22430;DHT22;11382;48.086;11.632;2023-04-21T07:40:18;17.60;97.90
22430;DHT22;11382;48.086;11.632;2023-04-21T07:42:46;18.30;99.00
22430;DHT22;11382;48.086;11.632;2023-04-21T07:45:14;18.70;96.40
22430;DHT22;11382;48.086;11.632;2023-04-21T07:47:42;16.90;98.60
22430;DHT22;11382;48.086;11.632;2023-04-21T07:50:11;16.30;99.90
22430;DHT22;11382;48.086;11.632;2023-04-21T07:52:39;17.10;99.90
22430;DHT22;11382;48.086;11.632;2023-04-21T07:55:07;18.00;99.20
22430;DHT22;11382;48.086;11.632;2023-04-21T07:57:36;18.90;97.60
22430;DHT22;11382;48.086;11.632;2023-04-21T08:00:07;19.10;97.00
22430;DHT22;11382;48.086;11.632;2023-04-21T08:02:40;19.20;97.40
22430;DHT22;11382;48.086;11.632;2023-04-21T08:05:09;21.60;94.10
22430;DHT22;11382;48.086;11.632;2023-04-21T08:07:37;23.60;90.00
22430;DHT22;11382;48.086;11.632;2023-04-21T08:10:07;24.90;84.70
22430;DHT22;11382;48.086;11.632;2023-04-21T08:12:35;23.70;81.40
22430;DHT22;11382;48.086;11.632;2023-04-21T08:15:05;22.60;84.30
22430;DHT22;11382;48.086;11.632;2023-04-21T08:17:34;21.60;87.40
22430;DHT22;11382;48.086;11.632;2023-04-21T08:20:02;19.90;91.70
22430;DHT22;11382;48.086;11.632;2023-04-21T08:22:30;20.20;91.50
22430;DHT22;11382;48.086;11.632;2023-04-21T08:24:58;20.90;91.00
22430;DHT22;11382;48.086;11.632;2023-04-21T08:27:26;21.20;90.70
22430;DHT22;11382;48.086;11.632;2023-04-21T08:29:54;23.80;87.10
22430;DHT22;11382;48.086;11.632;2023-04-21T08:32:23;25.90;76.00
22430;DHT22;11382;48.086;11.632;2023-04-21T08:34:53;26.50;74.30
22430;DHT22;11382;48.086;11.632;2023-04-21T08:37:21;26.80;72.80
22430;DHT22;11382;48.086;11.632;2023-04-21T08:39:49;25.70;72.20
22430;DHT22;11382;48.086;11.632;2023-04-21T08:42:19;24.60;72.80
22430;DHT22;11382;48.086;11.632;2023-04-21T08:44:47;26.50;69.10
22430;DHT22;11382;48.086;11.632;2023-04-21T08:47:15;27.40;73.00
22430;DHT22;11382;48.086;11.632;2023-04-21T08:49:44;30.20;62.90
22430;DHT22;11382;48.086;11.632;2023-04-21T08:52:13;27.80;63.50
22430;DHT22;11382;48.086;11.632;2023-04-21T08:54:41;28.00;65.10
22430;DHT22;11382;48.086;11.632;2023-04-21T08:57:09;30.30;59.10
22430;DHT22;11382;48.086;11.632;2023-04-21T08:59:43;29.50;58.10
22430;DHT22;11382;48.086;11.632;2023-04-21T09:02:12;29.90;58.00
22430;DHT22;11382;48.086;11.632;2023-04-21T09:04:44;30.60;57.90
22430;DHT22;11382;48.086;11.632;2023-04-21T09:07:29;30.20;55.70
22430;DHT22;11382;48.086;11.632;2023-04-21T09:09:58;28.00;56.70
22430;DHT22;11382;48.086;11.632;2023-04-21T09:12:27;24.30;63.00
22430;DHT22;11382;48.086;11.632;2023-04-21T09:14:56;23.10;69.60
22430;DHT22;11382;48.086;11.632;2023-04-21T09:17:28;24.80;68.30
22430;DHT22;11382;48.086;11.632;2023-04-21T09:20:12;24.70;68.20
22430;DHT22;11382;48.086;11.632;2023-04-21T09:22:41;24.70;65.50
22430;DHT22;11382;48.086;11.632;2023-04-21T09:25:09;24.80;66.00
22430;DHT22;11382;48.086;11.632;2023-04-21T09:27:42;25.60;63.40
22430;DHT22;11382;48.086;11.632;2023-04-21T09:30:20;25.70;62.90
22430;DHT22;11382;48.086;11.632;2023-04-21T09:33:03;26.60;61.50
22430;DHT22;11382;48.086;11.632;2023-04-21T09:35:47;28.40;59.60
22430;DHT22;11382;48.086;11.632;2023-04-21T09:38:15;27.60;58.90
22430;DHT22;11382;48.086;11.632;2023-04-21T09:40:43;27.60;57.80
22430;DHT22;11382;48.086;11.632;2023-04-21T09:43:11;26.60;58.40
22430;DHT22;11382;48.086;11.632;2023-04-21T09:45:39;26.10;59.90
22430;DHT22;11382;48.086;11.632;2023-04-21T09:48:09;24.70;61.80
22430;DHT22;11382;48.086;11.632;2023-04-21T09:50:38;22.70;67.30
22430;DHT22;11382;48.086;11.632;2023-04-21T09:53:28;21.80;72.60
22430;DHT22;11382;48.086;11.632;2023-04-21T09:56:00;22.70;70.70
22430;DHT22;11382;48.086;11.632;2023-04-21T09:58:34;21.40;71.90
22430;DHT22;11382;48.086;11.632;2023-04-21T10:01:05;22.10;71.50
22430;DHT22;11382;48.086;11.632;2023-04-21T10:03:34;24.90;68.50
22430;DHT22;11382;48.086;11.632;2023-04-21T10:06:05;27.10;62.20
22430;DHT22;11382;48.086;11.632;2023-04-21T10:08:35;28.80;59.60
22430;DHT22;11382;48.086;11.632;2023-04-21T10:11:04;30.60;57.20
22430;DHT22;11382;48.086;11.632;2023-04-21T10:13:33;28.70;57.10
22430;DHT22;11382;48.086;11.632;2023-04-21T10:16:01;29.40;59.00
22430;DHT22;11382;48.086;11.632;2023-04-21T10:18:30;31.40;55.00
22430;DHT22;11382;48.086;11.632;2023-04-21T10:21:01;29.40;56.00
22430;DHT22;11382;48.086;11.632;2023-04-21T10:23:34;31.70;55.20
22430;DHT22;11382;48.086;11.632;2023-04-21T10:26:10;32.50;53.00
22430;DHT22;11382;48.086;11.632;2023-04-21T10:28:40;31.10;53.80
22430;DHT22;11382;48.086;11.632;2023-04-21T10:31:23;29.90;55.80
22430;DHT22;11382;48.086;11.632;2023-04-21T10:34:18;30.70;55.30
22430;DHT22;11382;48.086;11.632;2023-04-21T10:39:54;30.00;56.50
22430;DHT22;11382;48.086;11.632;2023-04-21T10:42:26;30.70;55.60
22430;DHT22;11382;48.086;11.632;2023-04-21T10:45:10;31.90;54.70
22430;DHT22;11382;48.086;11.632;2023-04-21T10:47:45;30.40;55.50
22430;DHT22;11382;48.086;11.632;2023-04-21T10:50:20;32.50;55.60
22430;DHT22;11382;48.086;11.632;2023-04-21T10:52:54;32.50;53.80
22430;DHT22;11382;48.086;11.632;2023-04-21T10:55:26;28.40;56.20
22430;DHT22;11382;48.086;11.632;2023-04-21T10:57:55;28.10;57.50
22430;DHT22;11382;48.086;11.632;2023-04-21T11:00:24;30.70;54.80
22430;DHT22;11382;48.086;11.632;2023-04-21T11:02:57;29.70;53.60
22430;DHT22;11382;48.086;11.632;2023-04-21T11:05:30;30.00;55.20
22430;DHT22;11382;48.086;11.632;2023-04-21T11:08:04;29.90;54.30
22430;DHT22;11382;48.086;11.632;2023-04-21T11:10:49;29.00;53.40
22430;DHT22;11382;48.086;11.632;2023-04-21T11:13:21;29.80;54.20
22430;DHT22;11382;48.086;11.632;2023-04-21T11:15:58;30.30;53.60
22430;DHT22;11382;48.086;11.632;2023-04-21T11:18:33;30.10;53.40
22430;DHT22;11382;48.086;11.632;2023-04-21T11:21:11;30.70;53.90
22430;DHT22;11382;48.086;11.632;2023-04-21T11:23:39;31.00;52.00
22430;DHT22;11382;48.086;11.632;2023-04-21T11:26:08;31.30;52.80
22430;DHT22;11382;48.086;11.632;2023-04-21T11:28:39;31.40;52.30
22430;DHT22;11382;48.086;11.632;2023-04-21T11:31:07;28.80;54.20
22430;DHT22;11382;48.086;11.632;2023-04-21T11:33:35;29.70;55.90
22430;DHT22;11382;48.086;11.632;2023-04-21T11:36:04;27.60;56.00
22430;DHT22;11382;48.086;11.632;2023-04-21T11:38:37;27.50;56.60
22430;DHT22;11382;48.086;11.632;2023-04-21T11:41:06;27.50;57.40
22430;DHT22;11382;48.086;11.632;2023-04-21T11:43:36;27.20;59.40
22430;DHT22;11382;48.086;11.632;2023-04-21T11:46:15;26.50;58.30
22430;DHT22;11382;48.086;11.632;2023-04-21T11:48:43;26.70;56.90
22430;DHT22;11382;48.086;11.632;2023-04-21T11:51:16;26.60;58.40
22430;DHT22;11382;48.086;11.632;2023-04-21T11:53:47;25.90;60.90
22430;DHT22;11382;48.086;11.632;2023-04-21T11:56:20;26.20;59.10
22430;DHT22;11382;48.086;11.632;2023-04-21T11:58:50;24.40;60.00
22430;DHT22;11382;48.086;11.632;2023-04-21T12:01:19;21.70;65.60
22430;DHT22;11382;48.086;11.632;2023-04-21T12:03:51;21.00;70.90
22430;DHT22;11382;48.086;11.632;2023-04-21T12:06:21;19.80;74.90
22430;DHT22;11382;48.086;11.632;2023-04-21T12:08:54;19.20;76.50
22430;DHT22;11382;48.086;11.632;2023-04-21T12:11:24;19.50;79.40
22430;DHT22;11382;48.086;11.632;2023-04-21T12:13:57;19.90;79.20
22430;DHT22;11382;48.086;11.632;2023-04-21T12:16:26;19.30;80.20
22430;DHT22;11382;48.086;11.632;2023-04-21T12:18:55;19.20;83.70
22430;DHT22;11382;48.086;11.632;2023-04-21T12:21:26;19.80;84.10
22430;DHT22;11382;48.086;11.632;2023-04-21T12:23:55;19.10;84.10
22430;DHT22;11382;48.086;11.632;2023-04-21T12:26:23;19.00;89.10
22430;DHT22;11382;48.086;11.632;2023-04-21T12:28:53;18.40;89.00
22430;DHT22;11382;48.086;11.632;2023-04-21T12:31:22;18.00;90.40
22430;DHT22;11382;48.086;11.632;2023-04-21T12:33:50;18.20;90.10
22430;DHT22;11382;48.086;11.632;2023-04-21T12:36:18;18.10;91.30
22430;DHT22;11382;48.086;11.632;2023-04-21T12:38:46;17.60;91.00
22430;DHT22;11382;48.086;11.632;2023-04-21T12:41:14;17.80;91.70
22430;DHT22;11382;48.086;11.632;2023-04-21T12:43:42;18.30;91.50
22430;DHT22;11382;48.086;11.632;2023-04-21T12:46:09;18.00;89.80
22430;DHT22;11382;48.086;11.632;2023-04-21T12:48:39;18.10;91.30
22430;DHT22;11382;48.086;11.632;2023-04-21T12:51:07;18.40;90.20
22430;DHT22;11382;48.086;11.632;2023-04-21T12:53:35;18.10;89.10
22430;DHT22;11382;48.086;11.632;2023-04-21T12:56:04;17.60;90.10
22430;DHT22;11382;48.086;11.632;2023-04-21T12:58:32;17.50;91.30
22430;DHT22;11382;48.086;11.632;2023-04-21T13:01:00;17.50;90.70
22430;DHT22;11382;48.086;11.632;2023-04-21T13:03:28;17.60;91.80
22430;DHT22;11382;48.086;11.632;2023-04-21T13:05:57;17.50;91.20
22430;DHT22;11382;48.086;11.632;2023-04-21T13:08:25;17.40;91.70
22430;DHT22;11382;48.086;11.632;2023-04-21T13:10:53;17.60;91.60
22430;DHT22;11382;48.086;11.632;2023-04-21T13:13:21;17.70;91.50
22430;DHT22;11382;48.086;11.632;2023-04-21T13:15:49;17.90;91.30
22430;DHT22;11382;48.086;11.632;2023-04-21T13:18:17;17.80;90.40
22430;DHT22;11382;48.086;11.632;2023-04-21T13:20:45;18.00;91.80
22430;DHT22;11382;48.086;11.632;2023-04-21T13:23:14;18.10;92.80
22430;DHT22;11382;48.086;11.632;2023-04-21T13:25:43;18.10;92.60
22430;DHT22;11382;48.086;11.632;2023-04-21T13:28:11;18.00;91.70
22430;DHT22;11382;48.086;11.632;2023-04-21T13:30:40;17.60;92.70
22430;DHT22;11382;48.086;11.632;2023-04-21T13:33:08;17.90;92.90
22430;DHT22;11382;48.086;11.632;2023-04-21T13:35:36;18.30;92.70
22430;DHT22;11382;48.086;11.632;2023-04-21T13:38:04;18.30;91.90
22430;DHT22;11382;48.086;11.632;2023-04-21T13:40:34;18.40;93.50
22430;DHT22;11382;48.086;11.632;2023-04-21T13:43:02;18.40;91.80
22430;DHT22;11382;48.086;11.632;2023-04-21T13:45:30;18.40;92.70
22430;DHT22;11382;48.086;11.632;2023-04-21T13:47:58;18.50;91.40
22430;DHT22;11382;48.086;11.632;2023-04-21T13:50:26;18.30;90.60
22430;DHT22;11382;48.086;11.632;2023-04-21T13:52:54;18.10;89.60
22430;DHT22;11382;48.086;11.632;2023-04-21T13:55:22;18.40;91.60
22430;DHT22;11382;48.086;11.632;2023-04-21T13:57:52;18.30;91.10
22430;DHT22;11382;48.086;11.632;2023-04-21T14:00:20;18.20;92.00
22430;DHT22;11382;48.086;11.632;2023-04-21T14:02:48;18.40;92.00
22430;DHT22;11382;48.086;11.632;2023-04-21T14:05:16;18.20;92.50
22430;DHT22;11382;48.086;11.632;2023-04-21T14:07:45;18.40;92.50
22430;DHT22;11382;48.086;11.632;2023-04-21T14:10:13;18.30;91.40
22430;DHT22;11382;48.086;11.632;2023-04-21T14:12:41;18.40;91.30
22430;DHT22;11382;48.086;11.632;2023-04-21T14:15:12;18.50;91.00
22430;DHT22;11382;48.086;11.632;2023-04-21T14:17:40;18.80;91.00
22430;DHT22;11382;48.086;11.632;2023-04-21T14:20:09;18.60;90.30
22430;DHT22;11382;48.086;11.632;2023-04-21T14:22:37;18.60;90.40
22430;DHT22;11382;48.086;11.632;2023-04-21T14:25:05;18.60;89.60
22430;DHT22;11382;48.086;11.632;2023-04-21T14:27:33;18.70;90.30
22430;DHT22;11382;48.086;11.632;2023-04-21T14:30:01;18.60;89.60
22430;DHT22;11382;48.086;11.632;2023-04-21T14:32:30;18.30;88.00
22430;DHT22;11382;48.086;11.632;2023-04-21T14:34:59;18.40;88.60
22430;DHT22;11382;48.086;11.632;2023-04-21T14:37:29;18.50;88.00
22430;DHT22;11382;48.086;11.632;2023-04-21T14:39:57;18.70;87.80
22430;DHT22;11382;48.086;11.632;2023-04-21T14:42:25;18.80;88.60
22430;DHT22;11382;48.086;11.632;2023-04-21T14:44:52;18.70;88.40
22430;DHT22;11382;48.086;11.632;2023-04-21T14:47:21;18.90;88.50
22430;DHT22;11382;48.086;11.632;2023-04-21T14:49:50;18.90;88.00
22430;DHT22;11382;48.086;11.632;2023-04-21T14:52:21;19.00;87.30
22430;DHT22;11382;48.086;11.632;2023-04-21T14:54:51;18.90;87.50
22430;DHT22;11382;48.086;11.632;2023-04-21T14:57:19;18.90;86.30
22430;DHT22;11382;48.086;11.632;2023-04-21T14:59:49;18.90;87.10
22430;DHT22;11382;48.086;11.632;2023-04-21T15:02:18;19.00;87.00
22430;DHT22;11382;48.086;11.632;2023-04-21T15:04:46;19.00;85.60
22430;DHT22;11382;48.086;11.632;2023-04-21T15:07:16;19.10;87.60
22430;DHT22;11382;48.086;11.632;2023-04-21T15:09:50;19.30;86.70
22430;DHT22;11382;48.086;11.632;2023-04-21T15:12:18;19.30;84.40
22430;DHT22;11382;48.086;11.632;2023-04-21T15:14:46;19.30;86.10
22430;DHT22;11382;48.086;11.632;2023-04-21T15:17:14;19.20;87.00
22430;DHT22;11382;48.086;11.632;2023-04-21T15:19:42;19.40;86.60
22430;DHT22;11382;48.086;11.632;2023-04-21T15:22:10;19.50;83.70
22430;DHT22;11382;48.086;11.632;2023-04-21T15:24:39;19.30;83.30
22430;DHT22;11382;48.086;11.632;2023-04-21T15:27:07;19.20;82.70
22430;DHT22;11382;48.086;11.632;2023-04-21T15:29:35;18.90;81.30
22430;DHT22;11382;48.086;11.632;2023-04-21T15:32:03;19.00;84.70
22430;DHT22;11382;48.086;11.632;2023-04-21T15:34:31;19.10;84.20
22430;DHT22;11382;48.086;11.632;2023-04-21T15:36:59;18.90;82.70
22430;DHT22;11382;48.086;11.632;2023-04-21T15:39:27;18.90;82.60